Time;durP1;ratioP1;P1;durP2;ratioP2;P2;SDS_P1;SDS_P2;PMS_P1;PMS_P2;Temp;Humidity;BMP_temperature;BMP_pressure;BME280_temperature;BME280_humidity;BME280_pressure;Samples;Min_cycle;Max_cycle;Signal;HPM_P1;HPM_P2
2023/08/11 00:02:58;;;;;;;3.50;3.20;;;;;;;19.09;46.71;100144.34;10313686;28;20242;-68
2023/08/11 00:08:00;;;;;;;3.83;3.40;;;;;;;16.52;51.12;100203.97;10309769;28;20237;-68
2023/08/11 00:13:02;;;;;;;4.33;3.30;;;;;;;16.82;50.86;100141.28;10318403;28;20226;-68
2023/08/11 00:18:04;;;;;;;4.23;3.40;;;;;;;16.72;51.06;100124.69;10314534;28;20328;-70
2023/08/11 00:23:07;;;;;;;3.17;2.87;;;;;;;17.14;49.97;100119.66;10316618;28;20241;-68
2023/08/11 00:28:08;;;;;;;3.87;3.13;;;;;;;16.11;51.91;100171.88;10315929;28;20332;-68
2023/08/11 00:33:10;;;;;;;4.90;3.23;;;;;;;16.27;51.50;100152.56;10318084;28;20249;-68
2023/08/11 00:38:12;;;;;;;4.83;3.43;;;;;;;15.93;52.16;100180.66;10320187;28;20233;-68
2023/08/11 00:43:13;;;;;;;4.37;3.30;;;;;;;16.56;51.43;100097.13;10318505;28;20618;-68
2023/08/11 00:48:15;;;;;;;4.13;3.43;;;;;;;16.41;51.44;100118.22;10318730;28;20240;-68
2023/08/11 00:53:17;;;;;;;5.43;3.30;;;;;;;16.54;51.04;100134.34;10319395;28;20231;-68
2023/08/11 00:58:20;;;;;;;4.90;3.27;;;;;;;16.76;50.19;100126.75;10312527;28;20328;-68
2023/08/11 01:03:21;;;;;;;5.03;3.00;;;;;;;18.66;46.89;100137.25;10319212;28;20238;-68
2023/08/11 01:08:38;;;;;;;4.77;3.07;;;;;;;19.45;44.87;100193.22;10311917;28;20276;-68
2023/08/11 01:13:48;;;;;;;5.10;3.00;;;;;;;20.01;43.99;100259.78;10312068;28;20740;-68
2023/08/11 01:18:50;;;;;;;3.70;3.10;;;;;;;20.30;44.21;100230.00;10312193;28;20324;-68
2023/08/11 01:23:53;;;;;;;3.97;2.80;;;;;;;17.92;47.40;100283.47;10316835;28;20238;-68
2023/08/11 01:28:55;;;;;;;3.37;3.07;;;;;;;18.38;46.05;100295.75;10310104;28;20226;-68
2023/08/11 01:33:56;;;;;;;2.80;2.60;;;;;;;19.18;45.43;100218.91;10312563;28;20304;-68
2023/08/11 01:38:58;;;;;;;3.70;2.70;;;;;;;17.46;47.33;100314.38;10308653;28;20324;-68
2023/08/11 01:44:00;;;;;;;5.50;3.03;;;;;;;17.12;48.56;100276.72;10310054;28;20237;-68
2023/08/11 01:49:02;;;;;;;3.10;2.80;;;;;;;17.04;48.57;100257.19;10311608;28;20308;-68
2023/08/11 01:54:04;;;;;;;3.30;3.00;;;;;;;17.70;47.50;100199.94;10308056;28;20337;-68
2023/08/11 01:59:12;;;;;;;4.63;3.60;;;;;;;17.34;48.02;100233.06;10310767;28;20240;-68
2023/08/11 02:04:14;;;;;;;3.77;3.30;;;;;;;17.96;47.45;100176.38;10307096;28;20233;-68
2023/08/11 02:09:16;;;;;;;4.10;3.43;;;;;;;17.90;46.80;100255.81;10309818;28;20313;-68
2023/08/11 02:14:17;;;;;;;5.10;2.87;;;;;;;17.79;47.10;100270.88;10308008;28;20991;-68
2023/08/11 02:19:19;;;;;;;4.03;3.37;;;;;;;16.23;50.11;100284.41;10310779;28;20785;-68
2023/08/11 02:24:21;;;;;;;4.27;3.40;;;;;;;18.03;47.59;100192.56;10309304;28;20866;-68
2023/08/11 02:29:22;;;;;;;4.27;3.30;;;;;;;18.77;46.78;100163.53;10307615;28;20347;-67
2023/08/11 02:34:24;;;;;;;3.47;2.93;;;;;;;19.18;45.54;100231.63;10308665;28;20288;-67
2023/08/11 02:39:26;;;;;;;3.67;2.90;;;;;;;19.82;45.26;100204.72;10309798;28;20319;-67
2023/08/11 02:44:28;;;;;;;3.63;3.30;;;;;;;19.65;44.92;100241.78;10309536;28;20698;-68
2023/08/11 02:49:29;;;;;;;6.20;3.03;;;;;;;19.08;46.10;100248.47;10308740;28;20324;-68
2023/08/11 02:54:31;;;;;;;4.28;3.50;;;;;;;19.71;45.00;100225.38;10306828;28;20221;-68
2023/08/11 02:59:33;;;;;;;3.30;3.00;;;;;;;19.84;45.37;100188.19;10309161;28;20321;-68
2023/08/11 03:04:36;;;;;;;6.53;3.50;;;;;;;18.48;47.03;100254.59;10307143;28;20680;-69
2023/08/11 03:09:39;;;;;;;5.80;3.57;;;;;;;17.51;49.08;100238.78;10310056;28;20719;-70
2023/08/11 03:14:41;;;;;;;3.97;3.20;;;;;;;18.58;46.92;100248.66;10306612;28;20277;-69
2023/08/11 03:19:43;;;;;;;4.67;3.80;;;;;;;16.41;50.89;100272.16;10307271;28;20226;-69
2023/08/11 03:24:45;;;;;;;4.93;3.50;;;;;;;17.91;48.82;100173.50;10307520;28;20325;-69
2023/08/11 03:29:46;;;;;;;3.97;3.47;;;;;;;17.71;48.04;100296.34;10306143;28;20717;-69
2023/08/11 03:34:48;;;;;;;6.60;3.73;;;;;;;16.33;51.15;100265.13;10305422;28;20239;-69
2023/08/11 03:39:50;;;;;;;4.80;3.80;;;;;;;15.57;53.06;100239.41;10306009;28;20238;-69
2023/08/11 03:44:53;;;;;;;3.97;3.37;;;;;;;16.02;52.16;100179.38;10309533;28;20233;-69
2023/08/11 03:49:55;;;;;;;5.70;4.03;;;;;;;16.07;52.12;100152.56;10316517;28;20320;-70
2023/08/11 03:54:56;;;;;;;4.07;3.67;;;;;;;15.29;53.40;100189.16;10312778;28;20720;-69
2023/08/11 03:59:58;;;;;;;5.07;3.57;;;;;;;15.65;52.27;100222.19;10315917;28;20296;-69
2023/08/11 04:05:00;;;;;;;3.90;3.17;;;;;;;15.97;52.22;100154.88;10313023;28;20420;-69
2023/08/11 04:10:04;;;;;;;4.37;3.27;;;;;;;16.64;50.45;100189.81;10315714;28;20280;-69
2023/08/11 04:15:06;;;;;;;5.13;3.83;;;;;;;16.75;50.47;100187.25;10314281;28;20234;-67
2023/08/11 04:20:12;;;;;;;5.03;3.57;;;;;;;15.70;52.58;100228.59;10315689;28;20248;-67
2023/08/11 04:25:15;;;;;;;6.30;4.13;;;;;;;16.48;51.21;100177.59;10313230;28;20229;-67
2023/08/11 04:30:17;;;;;;;6.50;4.03;;;;;;;17.51;49.61;100165.75;10313085;28;20237;-67
2023/08/11 04:35:19;;;;;;;4.07;2.90;;;;;;;19.01;46.81;100240.44;10312703;28;20284;-70
2023/08/11 04:40:21;;;;;;;5.07;3.77;;;;;;;17.51;47.97;100372.19;10312755;28;20314;-67
2023/08/11 04:45:23;;;;;;;3.40;2.90;;;;;;;18.41;47.31;100287.19;10311459;28;20288;-70
2023/08/11 04:50:26;;;;;;;3.67;3.30;;;;;;;18.04;48.27;100299.81;10314053;28;20245;-69
2023/08/11 04:55:30;;;;;;;3.73;3.37;;;;;;;16.53;50.62;100353.38;10309392;28;20257;-69
2023/08/11 05:00:33;;;;;;;4.67;3.90;;;;;;;18.94;47.05;100228.00;10308717;28;20744;-69
2023/08/11 05:05:35;;;;;;;4.70;3.43;;;;;;;19.87;45.31;100310.78;10307467;28;20724;-67
2023/08/11 05:10:37;;;;;;;4.90;3.50;;;;;;;19.64;45.85;100284.41;10311111;28;20328;-67
2023/08/11 05:15:40;;;;;;;3.90;3.27;;;;;;;19.57;45.82;100356.97;10308105;28;20242;-67
2023/08/11 05:20:42;;;;;;;4.23;3.17;;;;;;;18.80;47.20;100333.88;10300443;28;20436;-66
2023/08/11 05:25:43;;;;;;;3.33;3.00;;;;;;;18.80;47.47;100319.50;10307365;28;20234;-70
2023/08/11 05:30:45;;;;;;;4.70;3.40;;;;;;;20.05;45.45;100309.84;10309407;28;20340;-67
2023/08/11 05:35:47;;;;;;;4.67;3.03;;;;;;;19.60;45.63;100364.63;10310294;28;20234;-70
2023/08/11 05:40:49;;;;;;;6.03;3.27;;;;;;;19.03;47.71;100316.13;10310421;28;20285;-67
2023/08/11 05:45:51;;;;;;;4.03;3.03;;;;;;;18.64;47.40;100392.25;10306727;28;20281;-70
2023/08/11 05:50:53;;;;;;;4.23;3.40;;;;;;;19.62;45.39;100410.56;10308322;28;20234;-67
2023/08/11 05:55:55;;;;;;;5.43;3.20;;;;;;;20.16;46.27;100310.91;10308412;28;20230;-70
2023/08/11 06:00:56;;;;;;;5.33;3.47;;;;;;;18.35;48.68;100387.50;10306845;28;20229;-70
2023/08/11 06:06:00;;;;;;;4.80;3.50;;;;;;;18.53;48.40;100356.91;10304150;28;20270;-69
2023/08/11 06:11:01;;;;;;;3.83;3.17;;;;;;;18.59;48.73;100328.91;10306404;28;20257;-71
2023/08/11 06:16:03;;;;;;;4.07;3.40;;;;;;;18.83;48.47;100292.75;10302524;28;20233;-70
2023/08/11 06:21:06;;;;;;;6.10;3.60;;;;;;;18.68;48.87;100313.19;10301801;28;20231;-70
2023/08/11 06:26:07;;;;;;;3.60;3.27;;;;;;;21.73;44.12;100296.44;10295030;28;20376;-70
2023/08/11 06:31:09;;;;;;;3.43;3.13;;;;;;;21.10;45.46;100311.88;10304551;28;20325;-69
2023/08/11 06:36:11;;;;;;;5.07;3.50;;;;;;;20.34;46.57;100369.78;10320587;23;20272;-41
2023/08/11 06:41:13;;;;;;;4.47;3.33;;;;;;;20.60;46.85;100296.97;10305300;28;20366;-41
2023/08/11 06:46:15;;;;;;;4.45;3.40;;;;;;;19.91;47.61;100381.75;10307046;28;20516;-39
2023/08/11 06:51:17;;;;;;;4.10;3.70;;;;;;;21.27;45.43;100303.75;10302413;28;20433;-42
2023/08/11 06:56:19;;;;;;;4.70;4.00;;;;;;;20.74;46.26;100314.66;10306970;28;20273;-39
2023/08/11 07:01:21;;;;;;;5.97;4.18;;;;;;;21.53;45.78;100286.84;10302437;28;20244;-41
2023/08/11 07:06:22;;;;;;;4.82;3.83;;;;;;;21.14;45.50;100365.56;10304390;28;20248;-39
2023/08/11 07:11:25;;;;;;;8.23;4.30;;;;;;;19.85;47.75;100402.50;10305543;28;20229;-41
2023/08/11 07:16:26;;;;;;;6.18;4.90;;;;;;;20.96;46.84;100308.63;10307979;28;20401;-40
2023/08/11 07:21:28;;;;;;;6.93;5.10;;;;;;;18.47;51.18;100369.44;10313795;28;20210;-40
2023/08/11 07:26:30;;;;;;;7.03;4.93;;;;;;;19.67;49.00;100351.81;10309761;28;20233;-40
2023/08/11 07:31:32;;;;;;;5.80;4.88;;;;;;;21.12;47.27;100309.72;10312720;28;20240;-40
2023/08/11 07:36:33;;;;;;;6.13;5.50;;;;;;;21.18;46.78;100335.97;10312113;28;20288;-39
2023/08/11 07:41:36;;;;;;;5.43;4.93;;;;;;;21.10;46.82;100369.81;10328241;28;20322;-40
2023/08/11 07:46:38;;;;;;;8.45;4.80;;;;;;;21.28;47.45;100344.34;10310691;28;20254;-39
2023/08/11 07:51:40;;;;;;;7.22;4.28;;;;;;;21.69;47.31;100301.53;10295285;28;20241;-40
2023/08/11 07:56:44;;;;;;;8.93;5.10;;;;;;;22.39;45.88;100321.19;10274104;28;20241;-39
2023/08/11 08:01:46;;;;;;;6.78;4.90;;;;;;;22.02;45.75;100376.22;10270807;28;20231;-39
2023/08/11 08:06:48;;;;;;;7.53;4.70;;;;;;;22.08;46.90;100328.06;10273267;28;20234;-40
2023/08/11 08:11:50;;;;;;;5.38;4.80;;;;;;;22.21;47.37;100335.91;10272931;28;20274;-39
2023/08/11 08:16:52;;;;;;;6.90;5.03;;;;;;;22.03;47.56;100347.91;10272336;28;20726;-40
2023/08/11 08:21:55;;;;;;;6.72;5.07;;;;;;;22.19;46.52;100354.41;10296116;28;20246;-39
2023/08/11 08:26:56;;;;;;;6.15;5.00;;;;;;;22.04;46.82;100381.44;10312495;28;20249;-39
2023/08/11 08:31:58;;;;;;;5.47;4.90;;;;;;;22.76;46.01;100363.41;10313570;28;20230;-40
2023/08/11 08:37:00;;;;;;;7.07;5.22;;;;;;;22.45;47.21;100330.25;10323524;28;20289;-40
2023/08/11 08:42:05;;;;;;;9.32;6.50;;;;;;;22.34;47.11;100332.03;10310319;28;20345;-40
2023/08/11 08:47:08;;;;;;;7.07;5.30;;;;;;;23.35;45.85;100295.38;10307132;28;20830;-39
2023/08/11 08:52:12;;;;;;;10.82;5.95;;;;;;;23.55;44.92;100324.78;10309558;28;20280;-38
2023/08/11 08:57:15;;;;;;;6.00;5.28;;;;;;;22.97;46.09;100315.41;10309490;28;20237;-39
2023/08/11 09:02:19;;;;;;;7.43;5.25;;;;;;;23.68;45.26;100314.56;10308109;28;20261;-39
2023/08/11 09:07:22;;;;;;;7.50;5.55;;;;;;;22.68;45.69;100360.06;10307645;28;20233;-40
2023/08/11 09:12:27;;;;;;;6.82;5.82;;;;;;;23.24;44.65;100367.31;10305620;28;20244;-39
2023/08/11 09:17:29;;;;;;;12.10;5.10;;;;;;;23.60;45.41;100319.38;10310321;28;20316;-40
2023/08/11 09:22:36;;;;;;;6.20;4.60;;;;;;;24.17;44.35;100292.53;10309443;28;20335;-39
2023/08/11 09:27:37;;;;;;;7.63;5.13;;;;;;;23.07;45.18;100351.03;10307396;28;20245;-41
2023/08/11 09:32:39;;;;;;;5.93;5.32;;;;;;;22.63;45.54;100334.63;10306484;28;20245;-41
2023/08/11 09:37:44;;;;;;;13.02;4.57;;;;;;;24.97;43.23;100291.56;10305089;28;20235;-41
2023/08/11 09:42:46;;;;;;;7.82;3.97;;;;;;;24.40;44.13;100324.13;10306933;28;20591;-41
2023/08/11 09:47:48;;;;;;;6.50;4.15;;;;;;;24.17;44.33;100330.81;10306539;28;20230;-41
2023/08/11 09:52:51;;;;;;;7.35;4.38;;;;;;;24.60;44.80;100323.41;10306364;28;20803;-39
2023/08/11 09:57:55;;;;;;;6.30;4.72;;;;;;;25.70;43.79;100283.19;10302581;28;20226;-38
2023/08/11 10:03:05;;;;;;;4.50;4.00;;;;;;;25.56;44.10;100252.78;10305839;28;20256;-39
2023/08/11 10:08:11;;;;;;;7.35;4.15;;;;;;;25.02;44.25;100286.13;10303959;28;20230;-40
2023/08/11 10:13:22;;;;;;;5.00;3.90;;;;;;;25.86;43.38;100280.47;10306804;28;20233;-40
2023/08/11 10:18:24;;;;;;;8.88;4.00;;;;;;;26.49;42.18;100253.47;10303764;28;20316;-40
2023/08/11 10:23:27;;;;;;;4.07;3.67;;;;;;;26.87;41.88;100236.56;10303916;28;20237;-41
2023/08/11 10:28:29;;;;;;;6.78;3.80;;;;;;;26.37;42.77;100263.94;10306169;28;20604;-42
2023/08/11 10:33:32;;;;;;;5.00;3.85;;;;;;;25.74;43.43;100267.06;10306577;28;20246;-40
2023/08/11 10:38:33;;;;;;;4.70;3.50;;;;;;;25.97;43.22;100258.25;10305474;28;20821;-41
2023/08/11 10:43:43;;;;;;;5.60;3.63;;;;;;;25.80;43.97;100249.50;10304067;28;20261;-40
2023/08/11 10:48:44;;;;;;;5.57;3.85;;;;;;;25.41;43.96;100228.13;10307483;28;20237;-42
2023/08/11 10:53:46;;;;;;;4.53;3.42;;;;;;;26.68;42.70;100207.00;10298752;28;20241;-42
2023/08/11 10:58:48;;;;;;;3.63;3.20;;;;;;;25.89;43.82;100239.63;10306584;28;20245;-40
2023/08/11 11:06:21;;;;;;;5.15;3.67;;;;;;;23.72;48.57;100184.53;10452575;28;20858;-68
2023/08/11 11:11:23;;;;;;;3.42;3.13;;;;;;;22.81;47.03;100208.84;10426340;28;20220;-68
2023/08/11 11:16:26;;;;;;;4.35;3.65;;;;;;;24.38;46.01;100197.78;10424568;28;20775;-69
2023/08/11 11:21:29;;;;;;;4.70;3.42;;;;;;;24.13;48.18;100217.59;10426372;28;20239;-69
2023/08/11 11:26:33;;;;;;;8.32;3.28;;;;;;;24.62;45.49;100209.06;10422832;28;20255;-68
2023/08/11 11:31:38;;;;;;;6.85;3.70;;;;;;;25.47;44.68;100203.22;10423989;28;21018;-69
2023/08/11 11:36:40;;;;;;;3.72;3.42;;;;;;;24.92;45.34;100223.94;10419170;28;20283;-69
2023/08/11 11:41:41;;;;;;;5.28;3.17;;;;;;;25.41;44.61;100176.09;10424288;28;20262;-69
2023/08/11 11:46:44;;;;;;;5.05;3.60;;;;;;;25.40;45.79;100175.25;10423180;28;20221;-69
2023/08/11 11:51:46;;;;;;;5.90;3.38;;;;;;;25.11;45.45;100216.84;10422266;28;20252;-69
2023/08/11 11:56:49;;;;;;;5.43;3.13;;;;;;;25.94;44.94;100195.75;10417450;28;20228;-68
2023/08/11 12:02:05;;;;;;;3.53;3.22;;;;;;;25.06;43.78;100236.00;10422111;28;20235;-69
2023/08/11 12:07:07;;;;;;;4.63;3.47;;;;;;;25.13;43.98;100248.63;10423775;28;20251;-69
2023/08/11 12:12:09;;;;;;;3.63;3.13;;;;;;;26.29;42.87;100220.63;10417507;28;20232;-68
2023/08/11 12:17:11;;;;;;;5.45;3.13;;;;;;;26.28;43.69;100216.25;10397935;28;20228;-69
2023/08/11 12:22:13;;;;;;;3.78;3.10;;;;;;;26.25;43.09;100227.75;10393350;28;20939;-68
2023/08/11 12:27:15;;;;;;;4.05;3.10;;;;;;;26.99;41.96;100186.78;10393841;28;20243;-69
2023/08/11 12:32:16;;;;;;;5.30;3.15;;;;;;;25.93;42.86;100212.47;10395802;28;20315;-69
2023/08/11 12:37:18;;;;;;;4.78;3.35;;;;;;;26.80;42.69;100183.91;10393836;28;20229;-69
2023/08/11 12:42:20;;;;;;;3.78;2.70;;;;;;;26.88;42.72;100211.56;10401326;28;20259;-69
2023/08/11 12:47:21;;;;;;;3.38;2.85;;;;;;;27.00;43.51;100192.00;10401534;28;20722;-68
2023/08/11 12:52:23;;;;;;;3.45;3.15;;;;;;;26.72;43.83;100196.25;10395899;28;20750;-69
2023/08/11 12:57:25;;;;;;;3.13;2.83;;;;;;;28.44;42.25;100156.75;10391721;28;20670;-69
2023/08/11 13:02:27;;;;;;;4.13;2.60;;;;;;;27.86;41.29;100175.88;10392625;28;20594;-68
2023/08/11 13:07:29;;;;;;;3.33;2.72;;;;;;;26.17;41.46;100205.28;10386908;28;20257;-69
2023/08/11 13:12:31;;;;;;;4.82;2.90;;;;;;;27.43;38.54;100205.13;10396168;28;20727;-69
2023/08/11 13:17:33;;;;;;;2.60;2.40;;;;;;;27.44;38.31;100218.59;10390665;28;20323;-69
2023/08/11 13:22:35;;;;;;;4.22;2.90;;;;;;;26.89;39.29;100218.72;10391321;28;20240;-68
2023/08/11 13:27:37;;;;;;;3.38;2.53;;;;;;;28.93;37.98;100152.75;10389358;28;20980;-69
2023/08/11 13:32:41;;;;;;;5.80;2.47;;;;;;;29.19;37.05;100166.13;10391286;28;20277;-69
2023/08/11 13:37:43;;;;;;;2.92;2.15;;;;;;;28.56;39.49;100179.13;10390518;28;20259;-69
2023/08/11 13:42:45;;;;;;;2.80;2.33;;;;;;;27.70;39.03;100171.66;10403221;28;20255;-69
2023/08/11 13:47:46;;;;;;;3.40;2.80;;;;;;;28.36;38.28;100170.06;10390776;28;20271;-68
2023/08/11 13:52:48;;;;;;;3.63;2.80;;;;;;;28.59;39.25;100162.88;10389062;28;20281;-68
2023/08/11 13:57:50;;;;;;;3.03;2.67;;;;;;;27.75;38.17;100146.88;10390161;28;20239;-70
2023/08/11 14:02:52;;;;;;;4.28;2.72;;;;;;;26.47;39.68;100178.84;10387419;28;20236;-69
2023/08/11 14:07:53;;;;;;;3.30;2.58;;;;;;;28.45;38.11;100136.38;10398312;28;20232;-69
2023/08/11 14:12:55;;;;;;;5.53;2.80;;;;;;;27.97;39.05;100137.25;10388931;28;20315;-69
2023/08/11 14:17:57;;;;;;;3.97;2.42;;;;;;;28.74;38.25;100103.22;10387473;28;20236;-69
2023/08/11 14:22:59;;;;;;;3.10;2.78;;;;;;;27.62;39.38;100114.56;10392169;28;20239;-69
2023/08/11 14:28:02;;;;;;;5.15;2.80;;;;;;;28.13;38.07;100116.69;10389690;28;20228;-69
2023/08/11 14:33:04;;;;;;;3.33;2.45;;;;;;;28.17;38.61;100116.91;10404804;28;20646;-70
2023/08/11 14:38:06;;;;;;;4.28;2.38;;;;;;;27.98;38.60;100106.72;10389673;28;20228;-70
2023/08/11 14:43:08;;;;;;;5.50;2.60;;;;;;;28.84;37.43;100121.50;10388309;28;20271;-69
2023/08/11 14:48:09;;;;;;;5.05;2.60;;;;;;;28.12;38.57;100112.31;10386331;28;20255;-73
2023/08/11 14:53:12;;;;;;;3.25;2.40;;;;;;;28.62;38.49;100095.38;10388225;28;20327;-68
2023/08/11 14:58:14;;;;;;;2.63;2.38;;;;;;;29.27;37.29;100077.28;10392346;28;20328;-69
2023/08/11 15:03:18;;;;;;;2.92;2.38;;;;;;;28.20;37.88;100105.34;10382887;28;20240;-69
2023/08/11 15:08:20;;;;;;;2.78;2.30;;;;;;;28.62;37.01;100062.34;10388066;28;20236;-69
2023/08/11 15:13:22;;;;;;;3.97;2.50;;;;;;;28.16;38.54;100082.28;10387775;28;20224;-68
2023/08/11 15:18:27;;;;;;;2.90;2.40;;;;;;;28.01;39.22;100092.38;10391779;28;20252;-69
2023/08/11 15:23:29;;;;;;;2.20;2.00;;;;;;;27.48;38.96;100096.00;10379110;28;20227;-68
2023/08/11 15:28:32;;;;;;;2.42;2.22;;;;;;;28.28;38.49;100079.13;10391733;28;20228;-68
2023/08/11 15:33:34;;;;;;;3.38;2.35;;;;;;;29.40;38.41;100059.91;10382352;28;20237;-69
2023/08/11 15:38:35;;;;;;;4.45;2.40;;;;;;;29.24;37.85;100031.03;10386592;28;20728;-69
2023/08/11 15:43:37;;;;;;;2.60;2.15;;;;;;;28.32;38.31;100086.47;10395894;28;20542;-69
2023/08/11 15:48:39;;;;;;;3.40;2.33;;;;;;;28.84;37.73;100042.47;10383066;28;20247;-69
2023/08/11 15:53:41;;;;;;;3.72;2.13;;;;;;;27.61;39.50;100064.25;10388455;28;20240;-69
2023/08/11 15:58:42;;;;;;;3.28;2.58;;;;;;;28.19;38.79;100049.53;10387720;28;20331;-72
2023/08/11 16:03:44;;;;;;;3.60;2.53;;;;;;;28.53;38.56;100064.97;10387377;28;20302;-68
2023/08/11 16:08:46;;;;;;;2.50;2.30;;;;;;;28.99;38.21;100037.81;10385979;28;20232;-68
2023/08/11 16:13:48;;;;;;;2.45;2.25;;;;;;;28.70;39.28;100044.38;10384339;28;20229;-71
2023/08/11 16:18:50;;;;;;;3.03;2.42;;;;;;;29.46;38.30;100022.06;10388010;28;20233;-71
2023/08/11 16:23:51;;;;;;;2.63;2.42;;;;;;;29.43;38.44;100041.97;10387260;28;20239;-68
2023/08/11 16:28:53;;;;;;;4.07;2.50;;;;;;;28.70;39.26;100052.63;10385065;28;20658;-68
2023/08/11 16:33:55;;;;;;;2.70;2.45;;;;;;;28.53;39.30;100061.41;10387008;28;20321;-68
2023/08/11 16:38:57;;;;;;;3.65;2.70;;;;;;;28.91;39.01;100022.78;10387859;28;20328;-69
2023/08/11 16:43:59;;;;;;;3.97;2.22;;;;;;;28.74;38.83;100037.13;10385542;28;20275;-69
2023/08/11 16:49:01;;;;;;;4.68;2.53;;;;;;;29.27;37.90;100045.03;10388172;28;20878;-68
2023/08/11 16:54:03;;;;;;;3.63;2.38;;;;;;;29.21;38.40;100042.66;10386822;28;20279;-69
2023/08/11 16:59:05;;;;;;;2.80;2.40;;;;;;;28.58;39.12;100044.81;10385497;28;20615;-69
2023/08/11 17:04:07;;;;;;;2.97;2.67;;;;;;;28.41;40.22;100035.16;10388555;28;20249;-67
2023/08/11 17:09:09;;;;;;;3.17;2.70;;;;;;;28.96;39.49;100017.19;10388283;28;20295;-68
2023/08/11 17:14:11;;;;;;;4.65;2.90;;;;;;;28.36;39.62;100032.50;10389076;28;20237;-68
2023/08/11 17:19:13;;;;;;;5.47;2.45;;;;;;;27.84;40.03;100056.31;10388560;28;20255;-68
2023/08/11 17:24:15;;;;;;;4.22;2.63;;;;;;;28.56;39.50;100020.34;10388829;28;20772;-68
2023/08/11 17:29:16;;;;;;;5.03;2.60;;;;;;;28.19;39.80;100048.72;10386148;28;20302;-68
2023/08/11 17:34:18;;;;;;;3.42;2.80;;;;;;;28.92;39.66;100008.72;10385017;28;20233;-68
2023/08/11 17:39:20;;;;;;;2.83;2.40;;;;;;;29.06;39.23;100008.72;10387028;28;20252;-68
2023/08/11 17:44:22;;;;;;;4.47;2.67;;;;;;;28.84;39.91;100031.44;10386465;28;20237;-68
2023/08/11 17:49:23;;;;;;;2.78;2.58;;;;;;;28.76;40.50;100010.94;10384396;28;20224;-67
2023/08/11 17:54:25;;;;;;;3.38;2.60;;;;;;;28.99;40.25;100041.38;10382303;28;20275;-66
2023/08/11 17:59:27;;;;;;;4.57;2.53;;;;;;;29.82;39.57;100004.78;10384977;28;20327;-66
2023/08/11 18:04:29;;;;;;;2.85;2.35;;;;;;;29.85;39.75;100020.72;10383875;28;20240;-67
2023/08/11 18:09:30;;;;;;;4.82;2.58;;;;;;;30.06;39.34;100021.91;10381220;28;20668;-67
2023/08/11 18:14:32;;;;;;;3.83;2.60;;;;;;;28.92;40.84;100051.97;10385710;28;22407;-67
2023/08/11 18:19:34;;;;;;;2.80;2.50;;;;;;;28.90;40.50;100041.25;10379925;28;20215;-67
2023/08/11 18:24:35;;;;;;;4.22;2.70;;;;;;;29.46;39.49;100024.81;10383966;28;20294;-67
2023/08/11 18:29:38;;;;;;;3.92;2.85;;;;;;;29.24;40.29;100040.13;10384194;28;20215;-67
2023/08/11 18:34:39;;;;;;;3.15;2.67;;;;;;;29.44;40.16;100029.81;10389697;28;20849;-68
2023/08/11 18:39:41;;;;;;;3.13;2.75;;;;;;;28.91;40.44;100042.06;10386599;28;20296;-67
2023/08/11 18:44:43;;;;;;;5.25;3.30;;;;;;;28.85;40.81;100032.28;10387835;28;20263;-68
2023/08/11 18:49:45;;;;;;;3.55;2.85;;;;;;;28.75;41.21;100038.78;10386072;28;20201;-68
2023/08/11 18:54:47;;;;;;;5.65;3.47;;;;;;;28.45;42.30;100040.06;10386436;28;20314;-67
2023/08/11 18:59:48;;;;;;;5.65;2.90;;;;;;;28.94;42.11;100033.22;10383746;28;20244;-67
2023/08/11 19:04:50;;;;;;;5.30;3.40;;;;;;;28.76;42.33;100044.00;10384446;28;20300;-67
2023/08/11 19:09:52;;;;;;;8.88;4.45;;;;;;;28.76;42.46;100038.47;10385601;28;20319;-67
2023/08/11 19:14:54;;;;;;;7.50;4.45;;;;;;;28.84;41.75;100039.72;10386131;28;20317;-67
2023/08/11 19:19:55;;;;;;;23.02;4.82;;;;;;;28.55;42.12;100053.66;10403460;28;20240;-68
2023/08/11 19:24:57;;;;;;;5.45;4.38;;;;;;;28.19;43.26;100054.22;10383242;28;20240;-68
2023/08/11 19:29:59;;;;;;;5.47;4.43;;;;;;;28.64;42.50;100043.59;10392428;28;20228;-68
2023/08/11 19:35:01;;;;;;;5.00;3.97;;;;;;;28.17;42.50;100049.00;10394617;28;20239;-66
2023/08/11 19:40:03;;;;;;;7.15;3.85;;;;;;;28.57;42.38;100049.47;10392587;28;20315;-66
2023/08/11 19:45:06;;;;;;;4.93;3.47;;;;;;;28.01;42.89;100039.31;10396285;28;20251;-67
2023/08/11 19:50:08;;;;;;;3.25;2.90;;;;;;;28.34;42.28;100045.75;10392471;28;20602;-67
2023/08/11 19:55:09;;;;;;;4.38;3.33;;;;;;;27.85;43.01;100057.94;10390904;28;20669;-68
2023/08/11 20:00:12;;;;;;;3.60;3.22;;;;;;;27.63;42.39;100047.47;10395769;28;20233;-69
2023/08/11 20:05:15;;;;;;;3.65;2.95;;;;;;;27.16;42.88;100074.63;10393218;28;20326;-68
2023/08/11 20:10:19;;;;;;;5.25;3.13;;;;;;;26.43;44.96;100043.34;10390379;28;20315;-68
2023/08/11 20:15:22;;;;;;;5.63;3.50;;;;;;;25.45;45.67;100049.25;10389889;28;20232;-67
2023/08/11 20:20:23;;;;;;;4.13;3.20;;;;;;;24.88;47.89;100023.06;10390535;28;20315;-66
2023/08/11 20:25:28;;;;;;;4.40;3.20;;;;;;;25.51;48.00;99980.75;10389183;28;20247;-66
2023/08/11 20:30:31;;;;;;;5.45;3.70;;;;;;;25.86;47.36;99995.41;10388034;28;20242;-66
2023/08/11 20:35:33;;;;;;;5.80;3.58;;;;;;;26.49;45.98;100009.28;10388465;28;20366;-67
2023/08/11 20:40:35;;;;;;;4.72;3.50;;;;;;;26.51;45.02;100037.25;10389446;28;20240;-68
2023/08/11 20:45:37;;;;;;;3.85;3.22;;;;;;;26.24;45.61;100056.91;10389821;28;20240;-69
2023/08/11 20:50:39;;;;;;;6.32;3.65;;;;;;;26.99;44.75;100049.50;10387498;28;20243;-70
2023/08/11 20:55:41;;;;;;;4.38;3.15;;;;;;;26.88;44.53;100049.59;10382426;28;20806;-67
2023/08/11 21:00:42;;;;;;;4.53;3.50;;;;;;;27.07;43.64;100052.44;10387852;28;20232;-66
2023/08/11 21:05:44;;;;;;;3.97;3.15;;;;;;;25.34;46.33;100085.16;10387517;28;20244;-66
2023/08/11 21:10:47;;;;;;;5.85;3.20;;;;;;;24.96;47.97;100046.31;10391781;28;20232;-66
2023/08/11 21:15:49;;;;;;;4.57;3.30;;;;;;;26.90;44.49;100027.34;10387077;28;20233;-67
2023/08/11 21:20:51;;;;;;;3.80;3.22;;;;;;;26.73;44.60;100056.03;10388533;28;20227;-67
2023/08/11 21:25:53;;;;;;;4.97;3.97;;;;;;;26.67;45.24;100037.97;10387560;28;20598;-67
2023/08/11 21:30:55;;;;;;;4.47;3.25;;;;;;;26.54;45.07;100033.94;10388494;28;20241;-67
2023/08/11 21:36:16;;;;;;;5.13;3.85;;;;;;;26.06;45.76;100052.88;10390415;28;20612;-66
2023/08/11 21:41:18;;;;;;;5.50;3.55;;;;;;;26.59;45.34;100033.09;10389909;28;20324;-67
2023/08/11 21:46:19;;;;;;;6.57;3.47;;;;;;;26.47;45.55;100021.63;10386011;28;20235;-73
2023/08/11 21:51:21;;;;;;;6.50;3.85;;;;;;;25.89;45.91;100053.22;10386812;28;20247;-66
2023/08/11 21:56:23;;;;;;;6.25;3.65;;;;;;;25.73;46.28;100027.00;10386197;28;20247;-66
2023/08/11 22:01:25;;;;;;;4.32;3.67;;;;;;;26.29;45.47;100012.19;10390323;28;20251;-66
2023/08/11 22:06:27;;;;;;;3.97;3.25;;;;;;;26.16;45.66;100014.41;10385482;28;20382;-66
2023/08/11 22:11:29;;;;;;;5.22;3.42;;;;;;;26.32;45.23;100023.41;10386373;28;20237;-67
2023/08/11 22:16:37;;;;;;;5.72;3.58;;;;;;;25.93;45.79;100035.13;10381332;28;20283;-67
2023/08/11 22:21:39;;;;;;;3.85;3.17;;;;;;;25.49;46.37;100035.84;10382900;28;20318;-67
2023/08/11 22:26:41;;;;;;;4.28;3.03;;;;;;;25.94;46.01;100008.53;10385357;28;20236;-67
2023/08/11 22:31:43;;;;;;;6.32;3.40;;;;;;;26.03;45.39;100015.06;10384987;28;20600;-66
2023/08/11 22:36:45;;;;;;;5.20;3.58;;;;;;;26.17;45.13;100013.31;10386777;28;20229;-67
2023/08/11 22:41:49;;;;;;;5.53;3.10;;;;;;;26.05;44.71;100039.44;10386233;28;20726;-67
2023/08/11 22:46:51;;;;;;;4.22;3.45;;;;;;;25.65;45.53;100039.34;10384171;28;20315;-68
2023/08/11 22:51:53;;;;;;;6.40;3.15;;;;;;;25.97;44.79;100019.75;10384068;28;20236;-67
2023/08/11 22:56:55;;;;;;;6.07;3.47;;;;;;;25.23;46.58;99994.81;10385455;28;20288;-68
2023/08/11 23:01:56;;;;;;;3.85;3.45;;;;;;;25.38;46.08;100012.31;10385912;28;20614;-66
2023/08/11 23:06:58;;;;;;;5.25;3.28;;;;;;;24.62;47.51;100006.63;10383845;28;20241;-67
2023/08/11 23:12:03;;;;;;;4.35;3.17;;;;;;;24.39;46.84;100012.63;10382078;28;20239;-68